Sirius — V7KI6 — position and weather

sailwx.info

Track history (hours):
 
Tides and Currents Weather Stations Pressure Air Temp Water Temp Dewpoint Dewpoint Depression Visibility Wind Speed Wind Dir Waves Ship Positions

Sirius

Last reported at 2014-Aug-21 13:32 UTC. Time now 2014-Aug-21 14:05 UTC.
Position N 34°21' E 033°57'.

Length 178.1 m; beam 28.2 m; draft 11.5 m.

Type: Cargo ship. MMSI: 538090245.

Date/timePositionNaut miles runAvg speedWind from/ knotsBaromVisibWave heightAir tempDewpointWater temp
2014-Aug-21 13:32N 34°21' E 033°57'1716.9
2014-Aug-21 12:32N 34°15' E 034°16'  
2014-Aug-17 00:23N 35°45' E 015°01'1919.0
2014-Aug-16 23:24N 35°48' E 014°38'5 0.8
2014-Aug-16 17:31N 35°49' E 014°32'0 0.0
2014-Aug-16 16:31N 35°49' E 014°32'0 0.0
2014-Aug-16 15:31N 35°49' E 014°32'0 0.0
2014-Aug-15 22:16N 35°49' E 014°32'0 0.0
2014-Aug-15 21:28N 35°49' E 014°32'0 0.0
2014-Aug-15 20:31N 35°49' E 014°32'0 0.0
2014-Aug-15 19:31N 35°49' E 014°32'0 0.0
2014-Aug-15 18:31N 35°49' E 014°32'0 0.0
2014-Aug-15 17:28N 35°49' E 014°32'0 0.0
2014-Aug-15 16:28N 35°49' E 014°32'0 0.0
2014-Aug-15 15:31N 35°49' E 014°32'0 0.0
2014-Aug-15 14:04N 35°49' E 014°32'0 0.0
2014-Aug-15 13:28N 35°49' E 014°32'0 0.0
2014-Aug-15 12:31N 35°49' E 014°32'0 0.0
2014-Aug-15 11:28N 35°49' E 014°32'0 0.0
2014-Aug-15 10:22N 35°49' E 014°32'0 0.0
2014-Aug-15 09:31N 35°49' E 014°32'0 0.0
2014-Aug-15 08:31N 35°49' E 014°32'0 0.0
2014-Aug-15 07:31N 35°49' E 014°32'1 0.7
2014-Aug-15 06:33N 35°49' E 014°33'4 4.2
2014-Aug-15 05:33N 35°50' E 014°38'1 0.6
2014-Aug-15 04:32N 35°51' E 014°39'0 0.0
2014-Aug-15 03:32N 35°51' E 014°39'0 0.0
2014-Aug-15 02:32N 35°51' E 014°39'0 0.0
2014-Aug-15 01:32N 35°51' E 014°39'0 0.0
2014-Aug-15 00:32N 35°51' E 014°39'0 0.0
2014-Aug-14 23:32N 35°51' E 014°39'0 0.0
2014-Aug-14 22:32N 35°51' E 014°39'0 0.0
2014-Aug-14 21:32N 35°51' E 014°39'0 0.0
2014-Aug-14 20:32N 35°51' E 014°39'0 0.0
2014-Aug-14 19:32N 35°51' E 014°39'0 0.0
2014-Aug-14 18:32N 35°51' E 014°39'0 0.0
2014-Aug-14 17:32N 35°51' E 014°39'0 0.1
2014-Aug-14 16:32N 35°51' E 014°39'0 0.0
2014-Aug-14 15:32N 35°51' E 014°39'0 0.0
2014-Aug-14 14:32N 35°51' E 014°39'0 0.0
2014-Aug-14 13:32N 35°51' E 014°39'0 0.0
2014-Aug-14 12:29N 35°51' E 014°39'0 0.0
2014-Aug-14 11:32N 35°51' E 014°39'0 0.1
2014-Aug-14 10:32N 35°51' E 014°39'0 0.1
2014-Aug-14 09:32N 35°51' E 014°39'0 0.1
2014-Aug-14 08:20N 35°51' E 014°39'0 0.1
2014-Aug-14 07:32N 35°51' E 014°39'  
Track history (hours):
 
Tides and Currents Weather Stations Pressure Air Temp Water Temp Dewpoint Dewpoint Depression Visibility Wind Speed Wind Dir Waves Ship Positions

Sirius

Last reported at 2014-Aug-21 13:32 UTC. Time now 2014-Aug-21 14:05 UTC.
Position N 34°21' E 033°57'.

Length 178.1 m; beam 28.2 m; draft 11.5 m.

Type: Cargo ship. MMSI: 538090245.

Date/timePositionNaut miles runAvg speedWind from/ knotsBaromVisibWave heightAir tempDewpointWater temp
2014-Aug-21 13:32N 34°21' E 033°57'1716.9
2014-Aug-21 12:32N 34°15' E 034°16'  
2014-Aug-17 00:23N 35°45' E 015°01'1919.0
2014-Aug-16 23:24N 35°48' E 014°38'5 0.8
2014-Aug-16 17:31N 35°49' E 014°32'0 0.0
2014-Aug-16 16:31N 35°49' E 014°32'0 0.0
2014-Aug-16 15:31N 35°49' E 014°32'0 0.0
2014-Aug-15 22:16N 35°49' E 014°32'0 0.0
2014-Aug-15 21:28N 35°49' E 014°32'0 0.0
2014-Aug-15 20:31N 35°49' E 014°32'0 0.0
2014-Aug-15 19:31N 35°49' E 014°32'0 0.0
2014-Aug-15 18:31N 35°49' E 014°32'0 0.0
2014-Aug-15 17:28N 35°49' E 014°32'0 0.0
2014-Aug-15 16:28N 35°49' E 014°32'0 0.0
2014-Aug-15 15:31N 35°49' E 014°32'0 0.0
2014-Aug-15 14:04N 35°49' E 014°32'0 0.0
2014-Aug-15 13:28N 35°49' E 014°32'0 0.0
2014-Aug-15 12:31N 35°49' E 014°32'0 0.0
2014-Aug-15 11:28N 35°49' E 014°32'0 0.0
2014-Aug-15 10:22N 35°49' E 014°32'0 0.0
2014-Aug-15 09:31N 35°49' E 014°32'0 0.0
2014-Aug-15 08:31N 35°49' E 014°32'0 0.0
2014-Aug-15 07:31N 35°49' E 014°32'1 0.7
2014-Aug-15 06:33N 35°49' E 014°33'4 4.2
2014-Aug-15 05:33N 35°50' E 014°38'1 0.6
2014-Aug-15 04:32N 35°51' E 014°39'0 0.0
2014-Aug-15 03:32N 35°51' E 014°39'0 0.0
2014-Aug-15 02:32N 35°51' E 014°39'0 0.0
2014-Aug-15 01:32N 35°51' E 014°39'0 0.0
2014-Aug-15 00:32N 35°51' E 014°39'0 0.0
2014-Aug-14 23:32N 35°51' E 014°39'0 0.0
2014-Aug-14 22:32N 35°51' E 014°39'0 0.0
2014-Aug-14 21:32N 35°51' E 014°39'0 0.0
2014-Aug-14 20:32N 35°51' E 014°39'0 0.0
2014-Aug-14 19:32N 35°51' E 014°39'0 0.0
2014-Aug-14 18:32N 35°51' E 014°39'0 0.0
2014-Aug-14 17:32N 35°51' E 014°39'0 0.1
2014-Aug-14 16:32N 35°51' E 014°39'0 0.0
2014-Aug-14 15:32N 35°51' E 014°39'0 0.0
2014-Aug-14 14:32N 35°51' E 014°39'0 0.0
2014-Aug-14 13:32N 35°51' E 014°39'0 0.0
2014-Aug-14 12:29N 35°51' E 014°39'0 0.0
2014-Aug-14 11:32N 35°51' E 014°39'0 0.1
2014-Aug-14 10:32N 35°51' E 014°39'0 0.1
2014-Aug-14 09:32N 35°51' E 014°39'0 0.1
2014-Aug-14 08:20N 35°51' E 014°39'0 0.1
2014-Aug-14 07:32N 35°51' E 014°39'  

Dump ship's entire track history